Dzhambejty, Kazakhstan
Current Conditions -  °F | °C
As of 11:00 PM on Thursday 27 Nov 2014 (Local Time) from UARR Reporting Station
Clear Clear  
Wind Chill: -10°   Ceiling: Unl
Heat Index:   Visibility: 6mi
Dew Point: -4°   Wind: 4mph
Humidity: 85%   Direction: 50°NE
Pressure: 30.56"   Gusts: NA
Location:  50.25°N, 52.57°E
Report Text: UARR 271900Z 05002MPS CAVOK M18/M20 Q1035 R04/CLRD70 NOSIG RMKQFE773/1030
Loading
Personal Weather Stations






























Interactive Weather Map New forecast layout! Learn more

10-Day Weather Forecast

Advertisements
Track Severe Weather on mobile